Airfield :
LOGIN :

Register | Disclaimer

   EN    FR    IT 

 










Legend :    VFR   Marginal VFR   IFR   Intensive IFR   Very Intensive IFR
Visi :
Ceiling :
>= 8 km
>= 3000ft
5 to 8 km
1000 to 3000 ft
1500m to 5 km
500 to 1000 ft
800 to 1500m
200 to 500 ft
< 800m
< 200 ft
Symbols :   Thunderstorms  Fog  Heavy snow  Heavy precipitations  Wind > 20 kt
SIGMETs :     Misc.  Thunderstorms  Icing  Turbulence  Mountain Waves  Volcanic Ashes






- Airport Elevation : 3 ft
- IATA code : LWR


EHLW - Leuuwarden Air Base

CURRENT METAR :
  • 082125Z AUTO 24016KT 9999 FEW015CB 07/04 Q0992 BLU

EXPIRED METARs :
  • 082055Z AUTO 23015KT 200V260 9999 FEW015CB BKN032 BKN037 08/04 Q0992 BLU
  • 082025Z AUTO 23014KT 9999 FEW066 SCT072 OVC140 08/04 Q0992 BLU
  • 081955Z AUTO 24015KT 200V260 9999 OVC160 08/04 Q0992 BLU
  • 081925Z AUTO 23017KT 200V260 9999 +DZ FEW032 SCT049 BKN056 08/04 Q0992 BLU
  • 081855Z AUTO 24016KT 9999 FEW017CB BKN150 08/03 Q0993 BLU

TAF TAF EHLW
Valid from the 08 at 22:00 until the 09 at 10:00 UTC


082114Z 0822/0910 23016G26KT 9999 SCT030 SCT050
TEMPO 0822/0910 24018G30KT SCT020CB BKN030
PROB30
TEMPO 0822/0910 2502G35KT 4000 SHRA TSRA SCT012 SCT018CB BKN020



MET'MAP, your aeronautical weather chart ! - Copyright ORBIFLY December 2007 - Disclaimer

ORBIFLY MET'MAP TEAM :

Programming & Development : Alexandra Zaïnal
Concept & original design : Baudouin d'Aumeries
Assistance for programming : Marc-Olivier Méhu
Technical & hardware support : Manuel Goepfert

Contact : metmap@orbifly.com




SOURCES & CREDITS :

   NOAA